createdAt,value
2019-04-22T00:02:20.685Z,94137.72
2019-04-22T00:05:01.058Z,94137.22
2019-04-22T00:07:43.236Z,94136.23
2019-04-22T00:10:19.365Z,94135.23
2019-04-22T00:12:47.246Z,94136.33
2019-04-22T00:15:10.129Z,94133.43
2019-04-22T00:17:55.077Z,94131.84
2019-04-22T00:20:14.725Z,94125.28
2019-04-22T00:22:44.858Z,94121.25
2019-04-22T00:25:19.862Z,94120.55
2019-04-22T00:32:59.336Z,94121.11
2019-04-22T00:35:23.792Z,94115.32
2019-04-22T00:38:07.755Z,94120.30
2019-04-22T00:40:33.959Z,94112.20
2019-04-22T00:42:58.343Z,94112.84
2019-04-22T00:45:36.204Z,94108.72
2019-04-22T00:48:09.088Z,94107.77
2019-04-22T00:50:37.441Z,94109.55
2019-04-22T00:53:09.011Z,94101.90
2019-04-22T00:55:37.896Z,94106.31
2019-04-22T00:58:08.300Z,94106.00
2019-04-22T01:00:39.173Z,94101.55
2019-04-22T01:03:10.961Z,94104.93
2019-04-22T01:05:43.851Z,94100.66
2019-04-22T01:08:17.754Z,94099.77
2019-04-22T01:10:49.494Z,94096.86
2019-04-22T01:13:12.423Z,94090.41
2019-04-22T01:15:44.267Z,94090.50
2019-04-22T01:18:11.190Z,94085.05
2019-04-22T01:21:00.963Z,94097.24
2019-04-22T01:23:12.955Z,94083.86
2019-04-22T01:25:44.043Z,94080.87
2019-04-22T01:28:06.406Z,94074.92
2019-04-22T01:30:30.335Z,94075.30
2019-04-22T01:32:57.922Z,94071.91
2019-04-22T01:35:37.832Z,94077.89
2019-04-22T01:38:07.843Z,94073.52
2019-04-22T01:40:52.821Z,94074.13
2019-04-22T01:43:25.106Z,94075.67
2019-04-22T01:45:53.260Z,94071.30
2019-04-22T01:48:19.612Z,94069.52
2019-04-22T01:50:49.644Z,94072.20
2019-04-22T01:53:19.655Z,94077.75
2019-04-22T01:55:55.535Z,94076.05
2019-04-22T01:58:18.367Z,94075.05
2019-04-22T02:00:58.264Z,94078.39
2019-04-22T02:03:25.962Z,94066.70
2019-04-22T02:05:51.066Z,94067.50
2019-04-22T02:08:31.264Z,94065.00
2019-04-22T02:10:57.187Z,94068.87
2019-04-22T02:13:28.769Z,94060.14
2019-04-22T02:16:01.623Z,94055.75
2019-04-22T02:18:36.266Z,94053.34
2019-04-22T02:20:55.347Z,94056.91
2019-04-22T02:28:39.899Z,94045.84
2019-04-22T02:34:01.264Z,94036.16
2019-04-22T02:36:22.586Z,94031.50
2019-04-22T02:41:22.872Z,94033.73
2019-04-22T02:51:16.898Z,94030.71
2019-04-22T02:54:15.331Z,94027.45
2019-04-22T03:01:27.515Z,94014.95
2019-04-22T03:06:29.573Z,94005.02
2019-04-22T03:08:46.143Z,94002.73
2019-04-22T03:11:19.102Z,94005.28
2019-04-22T03:21:18.638Z,93993.98
2019-04-22T03:24:05.908Z,93987.66
2019-04-22T03:26:27.447Z,93985.03
2019-04-22T03:28:51.155Z,93986.68
2019-04-22T03:31:53.699Z,93990.55
2019-04-22T03:34:39.498Z,93992.34
2019-04-22T03:39:28.230Z,93990.05
2019-04-22T03:41:50.098Z,93983.64
2019-04-22T03:44:23.475Z,93981.11
2019-04-22T03:46:30.288Z,93981.44
2019-04-22T03:49:09.387Z,93982.59
2019-04-22T03:57:10.440Z,93969.41
2019-04-22T03:59:09.885Z,93978.53
2019-04-22T04:04:13.053Z,93968.88
2019-04-22T04:06:43.248Z,93969.98
2019-04-22T04:09:09.347Z,93970.82
2019-04-22T04:11:43.299Z,93966.61
2019-04-22T04:14:11.970Z,93967.83
2019-04-22T04:16:39.159Z,93964.38
2019-04-22T04:19:13.625Z,93964.70
2019-04-22T04:24:29.549Z,93963.91
2019-04-22T04:36:42.191Z,93966.23
2019-04-22T04:39:05.513Z,93969.79
2019-04-22T04:41:42.755Z,93963.30
2019-04-22T04:46:45.080Z,93969.25
2019-04-22T04:49:43.569Z,93962.31
2019-04-22T04:51:37.746Z,93965.30
2019-04-22T04:56:42.463Z,93953.95
2019-04-22T05:01:44.568Z,93962.44
2019-04-22T05:04:13.697Z,93968.00
2019-04-22T05:06:51.546Z,93964.25
2019-04-22T05:11:57.552Z,93969.50
2019-04-22T05:14:17.529Z,93967.58
2019-04-22T05:19:15.929Z,93954.76
2019-04-22T05:21:48.560Z,93955.30
2019-04-22T05:24:16.581Z,93944.00
2019-04-22T05:29:12.826Z,93938.28
2019-04-22T05:31:43.640Z,93936.44
2019-04-22T05:34:19.473Z,93927.09
2019-04-22T05:39:11.185Z,93931.83
2019-04-22T05:41:43.160Z,93925.36
2019-04-22T05:44:18.694Z,93926.91
2019-04-22T05:46:40.806Z,93920.38
2019-04-22T05:51:41.765Z,93920.22
2019-04-22T05:54:14.579Z,93915.77
2019-04-22T05:56:40.919Z,93910.93
2019-04-22T05:59:17.660Z,93909.28
2019-04-22T06:04:14.723Z,93898.98
2019-04-22T06:06:46.967Z,93894.56
2019-04-22T06:09:19.148Z,93890.84
2019-04-22T06:11:42.819Z,93883.89
2019-04-22T06:14:13.944Z,93883.23
2019-04-22T06:16:53.212Z,93880.84
2019-04-22T06:19:18.845Z,93883.89
2019-04-22T06:21:50.145Z,93883.77
2019-04-22T06:27:01.560Z,93873.39
2019-04-22T06:29:36.560Z,93869.55
2019-04-22T06:32:22.292Z,93861.70
2019-04-22T06:34:30.775Z,93859.83
2019-04-22T06:36:59.725Z,93857.65
2019-04-22T06:39:34.117Z,93864.14
2019-04-22T06:42:02.062Z,93863.95
2019-04-22T06:44:29.611Z,93851.82
2019-04-22T06:47:00.656Z,93847.30
2019-04-22T06:49:30.106Z,93847.69
2019-04-22T06:52:04.435Z,93839.34
2019-04-22T06:54:32.508Z,93835.82
2019-04-22T06:57:03.995Z,93837.98
2019-04-22T06:59:31.164Z,93828.30
2019-04-22T07:02:04.837Z,93823.61
2019-04-22T07:04:34.433Z,93818.61
2019-04-22T07:12:06.379Z,93811.27
2019-04-22T07:14:36.375Z,93808.41
2019-04-22T07:17:01.839Z,93809.09
2019-04-22T07:19:37.181Z,93804.76
2019-04-22T07:22:11.329Z,93802.13
2019-04-22T07:27:10.532Z,93800.38
2019-04-22T07:29:42.787Z,93797.87
2019-04-22T07:32:07.844Z,93790.57
2019-04-22T07:34:44.556Z,93790.84
2019-04-22T07:37:23.062Z,93780.48
2019-04-22T07:39:44.148Z,93776.17
2019-04-22T07:42:13.495Z,93775.09
2019-04-22T07:44:43.049Z,93777.91
2019-04-22T07:49:43.836Z,93765.84
2019-04-22T07:52:14.226Z,93758.73
2019-04-22T07:54:41.667Z,93756.41
2019-04-22T07:59:40.488Z,93746.95
2019-04-22T08:02:16.070Z,93738.78
2019-04-22T08:05:01.972Z,93741.13
2019-04-22T08:07:30.364Z,93738.23
2019-04-22T08:09:51.090Z,93735.30
2019-04-22T08:12:12.018Z,93727.05
2019-04-22T08:14:45.855Z,93727.23
2019-04-22T08:17:41.519Z,93721.51
2019-04-22T08:19:53.807Z,93718.58
2019-04-22T08:22:17.050Z,93715.92
2019-04-22T08:24:47.186Z,93707.83
2019-04-22T08:27:15.254Z,93702.75
2019-04-22T08:29:52.233Z,93695.94
2019-04-22T08:32:21.775Z,93686.48
2019-04-22T08:34:47.599Z,93679.98
2019-04-22T08:37:42.262Z,93674.12
2019-04-22T08:39:56.678Z,93669.41
2019-04-22T08:42:29.519Z,93662.19
2019-04-22T08:45:09.677Z,93663.75
2019-04-22T08:47:29.214Z,93662.80
2019-04-22T08:49:59.686Z,93652.73
2019-04-22T08:52:22.286Z,93660.44
2019-04-22T08:54:51.229Z,93655.53
2019-04-22T08:57:30.262Z,93656.23
2019-04-22T08:59:57.451Z,93651.28
2019-04-22T09:02:26.023Z,93641.17
2019-04-22T09:04:53.686Z,93643.09
2019-04-22T09:07:30.304Z,93640.30
2019-04-22T09:09:50.643Z,93635.66
2019-04-22T09:12:37.039Z,93627.44
2019-04-22T09:14:53.758Z,93626.42
2019-04-22T09:17:41.317Z,93629.44
2019-04-22T09:19:56.333Z,93625.79
2019-04-22T09:22:21.862Z,93613.27
2019-04-22T09:24:54.043Z,93613.02
2019-04-22T09:27:33.169Z,93609.83
2019-04-22T09:30:01.144Z,93605.22
2019-04-22T09:32:26.939Z,93600.08
2019-04-22T09:35:09.479Z,93595.67
2019-04-22T09:40:04.614Z,93578.75
2019-04-22T09:42:37.238Z,93578.14
2019-04-22T09:44:59.193Z,93580.45
2019-04-22T09:47:37.231Z,93579.16
2019-04-22T09:50:03.775Z,93577.06
2019-04-22T09:52:32.203Z,93568.73
2019-04-22T09:55:06.135Z,93560.12
2019-04-22T09:57:33.936Z,93559.63
2019-04-22T10:00:02.822Z,93548.31
2019-04-22T10:02:34.471Z,93531.12
2019-04-22T10:05:07.896Z,93528.58
2019-04-22T10:07:31.828Z,93524.51
2019-04-22T10:10:14.352Z,93519.07
2019-04-22T10:12:36.597Z,93518.20
2019-04-22T10:15:19.538Z,93513.29
2019-04-22T10:17:37.970Z,93510.39
2019-04-22T10:20:07.116Z,93502.13
2019-04-22T10:22:39.336Z,93494.92
2019-04-22T10:25:11.899Z,93493.28
2019-04-22T10:27:46.420Z,93492.87
2019-04-22T10:32:38.145Z,93478.56
2019-04-22T10:34:55.555Z,93469.53
2019-04-22T10:37:23.431Z,93469.03
2019-04-22T10:39:56.232Z,93466.03
2019-04-22T10:42:23.055Z,93462.55
2019-04-22T10:44:53.694Z,93451.70
2019-04-22T10:47:22.387Z,93448.50
2019-04-22T10:49:52.261Z,93437.14
2019-04-22T10:52:21.634Z,93435.27
2019-04-22T10:54:51.551Z,93419.22
2019-04-22T10:57:20.307Z,93426.30
2019-04-22T10:59:50.320Z,93418.52
2019-04-22T11:02:19.267Z,93415.00
2019-04-22T11:04:50.324Z,93405.77
2019-04-22T11:07:25.224Z,93407.74
2019-04-22T11:09:59.282Z,93399.63
2019-04-22T11:12:24.724Z,93394.74
2019-04-22T11:14:51.838Z,93397.16
2019-04-22T11:17:21.757Z,93386.95
2019-04-22T11:19:50.542Z,93381.41
2019-04-22T11:22:23.023Z,93381.87
2019-04-22T11:24:50.810Z,93377.11
2019-04-22T11:27:21.080Z,93376.86
2019-04-22T11:29:49.995Z,93373.08
2019-04-22T11:32:20.159Z,93374.80
2019-04-22T11:34:49.112Z,93369.92
2019-04-22T11:37:18.548Z,93366.30
2019-04-22T11:40:00.266Z,93370.25
2019-04-22T11:42:18.273Z,93360.10
2019-04-22T11:44:47.497Z,93357.04
2019-04-22T11:47:17.161Z,93355.51
2019-04-22T11:49:45.975Z,93353.66
2019-04-22T11:52:16.709Z,93351.20
2019-04-22T11:54:46.507Z,93345.42
2019-04-22T11:57:16.985Z,93344.30
2019-04-22T11:59:46.989Z,93339.05
2019-04-22T12:02:19.231Z,93337.58
2019-04-22T12:04:47.942Z,93340.26
2019-04-22T12:07:17.206Z,93332.28
2019-04-22T12:09:45.985Z,93328.01
2019-04-22T12:12:15.972Z,93325.80
2019-04-22T12:14:46.123Z,93325.32
2019-04-22T12:17:15.998Z,93323.94
2019-04-22T12:19:46.281Z,93321.21
2019-04-22T12:22:15.422Z,93313.48
2019-04-22T12:24:46.046Z,93310.16
2019-04-22T12:27:17.388Z,93315.71
2019-04-22T12:29:45.189Z,93303.31
2019-04-22T12:32:17.775Z,93290.36
2019-04-22T12:34:47.156Z,93291.03
2019-04-22T12:37:27.401Z,93296.61
2019-04-22T12:39:48.073Z,93293.56
2019-04-22T12:42:17.484Z,93286.13
2019-04-22T12:44:47.703Z,93286.02
2019-04-22T12:47:17.811Z,93282.30
2019-04-22T12:49:54.269Z,93282.08
2019-04-22T12:52:29.203Z,93271.53
2019-04-22T12:54:48.956Z,93270.44
2019-04-22T12:57:18.814Z,93267.67
2019-04-22T12:59:47.979Z,93258.58
2019-04-22T13:02:16.618Z,93260.72
2019-04-22T13:04:45.987Z,93256.16
2019-04-22T13:07:15.735Z,93251.33
2019-04-22T13:09:45.384Z,93245.56
2019-04-22T13:12:15.210Z,93244.98
2019-04-22T13:14:45.420Z,93241.14
2019-04-22T13:17:15.715Z,93231.96
2019-04-22T13:19:47.821Z,93226.80
2019-04-22T13:22:16.857Z,93224.41
2019-04-22T13:24:45.877Z,93216.22
2019-04-22T13:27:15.027Z,93209.66
2019-04-22T13:29:46.549Z,93215.88
2019-04-22T13:32:14.269Z,93210.11
2019-04-22T13:34:48.044Z,93209.48
2019-04-22T13:37:14.705Z,93204.80
2019-04-22T13:39:43.835Z,93203.17
2019-04-22T13:42:19.311Z,93201.14
2019-04-22T13:44:46.053Z,93198.19
2019-04-22T13:47:35.009Z,93195.42
2019-04-22T13:50:28.233Z,93190.89
2019-04-22T13:53:00.662Z,93190.39
2019-04-22T13:55:17.730Z,93184.42
2019-04-22T13:57:40.155Z,93182.51
2019-04-22T13:59:55.848Z,93188.42
2019-04-22T14:02:37.829Z,93190.07
2019-04-22T14:05:08.638Z,93183.33
2019-04-22T14:07:38.839Z,93183.98
2019-04-22T14:10:08.716Z,93179.84
2019-04-22T14:12:39.022Z,93173.84
2019-04-22T14:15:11.721Z,93170.73
2019-04-22T14:17:41.038Z,93171.28
2019-04-22T14:20:10.941Z,93172.02
2019-04-22T14:22:40.816Z,93171.25
2019-04-22T14:25:10.529Z,93162.09
2019-04-22T14:27:48.599Z,93157.91
2019-04-22T14:30:10.850Z,93153.12
2019-04-22T14:32:39.888Z,93149.06
2019-04-22T14:35:11.227Z,93146.84
2019-04-22T14:37:40.335Z,93143.08
2019-04-22T14:40:12.287Z,93134.54
2019-04-22T14:43:04.108Z,93131.89
2019-04-22T14:45:46.018Z,93129.87
2019-04-22T14:48:07.280Z,93133.74
2019-04-22T14:50:37.239Z,93134.22
2019-04-22T14:53:03.681Z,93132.77
2019-04-22T14:55:22.654Z,93130.30
2019-04-22T14:57:46.838Z,93127.34
2019-04-22T15:00:18.074Z,93120.24
2019-04-22T15:02:47.928Z,93116.38
2019-04-22T15:05:18.550Z,93112.95
2019-04-22T15:07:47.726Z,93110.08
2019-04-22T15:10:18.124Z,93103.98
2019-04-22T15:12:50.231Z,93093.56
2019-04-22T15:15:31.740Z,93096.80
2019-04-22T15:18:03.057Z,93099.88
2019-04-22T15:20:37.526Z,93094.34
2019-04-22T15:23:06.742Z,93093.23
2019-04-22T15:25:36.753Z,93085.27
2019-04-22T15:28:05.801Z,93084.17
2019-04-22T15:30:35.219Z,93085.93
2019-04-22T15:33:05.410Z,93083.61
2019-04-22T15:35:35.458Z,93081.73
2019-04-22T15:38:04.810Z,93089.63
2019-04-22T15:40:34.590Z,93089.33
2019-04-22T15:43:04.734Z,93086.83
2019-04-22T15:45:34.927Z,93089.63
2019-04-22T15:48:04.166Z,93074.02
2019-04-22T15:50:33.177Z,93090.23
2019-04-22T15:53:03.004Z,93088.34
2019-04-22T15:55:32.623Z,93083.00
2019-04-22T15:58:01.867Z,93078.70
2019-04-22T16:00:41.488Z,93079.73
2019-04-22T16:03:04.257Z,93085.59
2019-04-22T16:05:32.230Z,93081.41
2019-04-22T16:08:01.387Z,93077.63
2019-04-22T16:10:30.393Z,93078.25
2019-04-22T16:13:07.328Z,93077.30
2019-04-22T16:15:30.730Z,93080.27
2019-04-22T16:18:01.651Z,93091.31
2019-04-22T16:20:30.141Z,93092.22
2019-04-22T16:23:18.762Z,93088.65
2019-04-22T16:25:56.647Z,93081.01
2019-04-22T16:28:25.325Z,93074.70
2019-04-22T16:30:55.337Z,93080.23
2019-04-22T16:33:25.668Z,93089.09
2019-04-22T16:35:55.065Z,93089.39
2019-04-22T16:38:24.769Z,93079.41
2019-04-22T16:40:54.840Z,93089.77
2019-04-22T16:43:24.715Z,93090.18
2019-04-22T16:45:53.884Z,93087.58
2019-04-22T16:48:22.515Z,93088.05
2019-04-22T16:50:52.715Z,93094.77
2019-04-22T16:53:23.218Z,93099.44
2019-04-22T16:55:52.964Z,93092.98
2019-04-22T16:58:23.153Z,93093.09
2019-04-22T17:00:54.715Z,93096.00
2019-04-22T17:03:28.915Z,93093.91
2019-04-22T17:06:11.905Z,93100.05
2019-04-22T17:08:40.747Z,93101.23
2019-04-22T17:11:13.584Z,93102.31
2019-04-22T17:13:44.175Z,93096.79
2019-04-22T17:16:15.675Z,93101.90
2019-04-22T17:18:46.817Z,93103.84
2019-04-22T17:21:15.299Z,93106.09
2019-04-22T17:23:45.555Z,93112.69
2019-04-22T17:26:14.879Z,93112.99
2019-04-22T17:28:43.855Z,93108.70
2019-04-22T17:31:13.121Z,93107.89
2019-04-22T17:33:41.927Z,93111.86
2019-04-22T17:36:12.003Z,93114.84
2019-04-22T17:38:51.997Z,93122.56
2019-04-22T17:41:27.065Z,93123.12
2019-04-22T17:44:04.842Z,93124.65
2019-04-22T17:46:32.978Z,93132.24
2019-04-22T17:49:10.451Z,93135.84
2019-04-22T17:52:02.858Z,93146.16
2019-04-22T17:54:11.626Z,93137.38
2019-04-22T17:56:43.373Z,93137.98
2019-04-22T17:59:15.614Z,93145.93
2019-04-22T18:01:39.853Z,93141.42
2019-04-22T18:03:56.629Z,93145.13
2019-04-22T18:06:52.794Z,93145.67
2019-04-22T18:09:14.632Z,93154.08
2019-04-22T18:11:51.245Z,93148.29
2019-04-22T18:14:29.928Z,93152.59
2019-04-22T18:16:47.652Z,93162.36
2019-04-22T18:19:15.485Z,93160.70
2019-04-22T18:21:41.250Z,93163.20
2019-04-22T18:24:07.929Z,93165.80
2019-04-22T18:26:49.789Z,93175.91
2019-04-22T18:29:25.481Z,93181.80
2019-04-22T18:31:43.260Z,93179.98
2019-04-22T18:34:19.075Z,93189.76
2019-04-22T18:36:46.616Z,93188.02
2019-04-22T18:39:28.542Z,93203.55
2019-04-22T18:41:51.962Z,93199.89
2019-04-22T18:44:29.592Z,93214.97
2019-04-22T18:46:55.068Z,93213.53
2019-04-22T18:49:26.762Z,93222.73
2019-04-22T18:52:00.800Z,93224.08
2019-04-22T18:54:31.055Z,93221.14
2019-04-22T18:57:02.669Z,93230.38
2019-04-22T18:59:22.567Z,93237.89
2019-04-22T19:01:48.109Z,93243.39
2019-04-22T19:04:26.783Z,93246.81
2019-04-22T19:07:12.133Z,93210.47
2019-04-22T19:09:48.324Z,93245.20
2019-04-22T19:12:24.148Z,93247.12
2019-04-22T19:14:50.641Z,93244.17
2019-04-22T19:17:27.425Z,93250.52
2019-04-22T19:19:49.991Z,93255.78
2019-04-22T19:22:16.251Z,93263.17
2019-04-22T19:24:45.874Z,93270.52
2019-04-22T19:27:15.720Z,93268.55
2019-04-22T19:29:54.096Z,93268.98
2019-04-22T19:32:14.789Z,93278.16
2019-04-22T19:34:47.838Z,93278.29
2019-04-22T19:37:20.672Z,93280.72
2019-04-22T19:40:00.626Z,93284.13
2019-04-22T19:42:24.890Z,93294.16
2019-04-22T19:44:53.228Z,93283.09
2019-04-22T19:47:38.806Z,93288.70
2019-04-22T19:49:58.433Z,93298.36
2019-04-22T19:52:24.382Z,93293.92
2019-04-22T19:54:54.985Z,93295.15
2019-04-22T19:57:22.590Z,93298.31
2019-04-22T19:59:50.831Z,93305.85
2019-04-22T20:02:28.902Z,93307.17
2019-04-22T20:05:06.439Z,93310.58
2019-04-22T20:07:48.715Z,93307.44
2019-04-22T20:10:19.573Z,93308.40
2019-04-22T20:12:42.479Z,93309.77
2019-04-22T20:15:14.314Z,93309.22
2019-04-22T20:18:07.583Z,93314.97
2019-04-22T20:20:22.748Z,93312.66
2019-04-22T20:22:45.153Z,93311.92
2019-04-22T20:25:09.826Z,93312.53
2019-04-22T20:27:47.545Z,93323.22
2019-04-22T20:30:23.549Z,93316.64
2019-04-22T20:32:47.667Z,93320.27
2019-04-22T20:35:20.995Z,93319.82
2019-04-22T20:37:52.655Z,93317.73
2019-04-22T20:40:25.298Z,93325.56
2019-04-22T20:42:56.771Z,93330.83
2019-04-22T20:45:24.745Z,93332.91
2019-04-22T20:47:45.502Z,93331.32
2019-04-22T20:50:24.941Z,93332.39
2019-04-22T20:52:59.650Z,93338.13
2019-04-22T20:55:23.926Z,93334.47
2019-04-22T20:57:59.017Z,93326.59
2019-04-22T21:00:23.808Z,93327.67
2019-04-22T21:02:48.816Z,93332.57
2019-04-22T21:05:26.494Z,93333.36
2019-04-22T21:08:06.326Z,93330.75
2019-04-22T21:10:27.670Z,93334.72
2019-04-22T21:13:01.254Z,93328.42
2019-04-22T21:15:42.442Z,93338.62
2019-04-22T21:18:08.251Z,93334.94
2019-04-22T21:20:43.195Z,93340.41
2019-04-22T21:23:05.203Z,93324.99
2019-04-22T21:25:31.916Z,93323.47
2019-04-22T21:28:11.094Z,93327.87
2019-04-22T21:30:37.249Z,93329.42
2019-04-22T21:33:07.690Z,93320.86
2019-04-22T21:35:53.709Z,93321.91
2019-04-22T21:38:14.870Z,93323.47
2019-04-22T21:40:39.727Z,93330.22
2019-04-22T21:43:12.146Z,93327.34
2019-04-22T21:45:39.078Z,93326.79
2019-04-22T21:48:23.026Z,93327.36
2019-04-22T21:50:54.279Z,93320.04
2019-04-22T21:53:18.034Z,93326.02
2019-04-22T21:55:50.429Z,93331.98
2019-04-22T21:58:27.719Z,93325.98
2019-04-22T22:01:14.576Z,93330.45
2019-04-22T22:03:38.658Z,93326.98
2019-04-22T22:05:58.841Z,93323.84
2019-04-22T22:08:40.286Z,93317.27
2019-04-22T22:11:11.319Z,93322.02
2019-04-22T22:13:43.790Z,93319.22
2019-04-22T22:16:07.741Z,93323.36
2019-04-22T22:18:29.040Z,93319.44
2019-04-22T22:21:25.770Z,93323.84
2019-04-22T22:23:45.752Z,93322.46
2019-04-22T22:26:06.789Z,93325.23
2019-04-22T22:28:54.881Z,93326.98
2019-04-22T22:31:19.824Z,93317.37
2019-04-22T22:33:41.804Z,93314.81
2019-04-22T22:36:05.012Z,93313.30
2019-04-22T22:38:38.889Z,93307.53
2019-04-22T22:40:51.998Z,93306.77
2019-04-22T22:43:29.739Z,93308.03
2019-04-22T22:46:06.276Z,93299.66
2019-04-22T22:48:43.373Z,93299.41
2019-04-22T22:51:15.170Z,93289.95
2019-04-22T22:53:47.844Z,93289.38
2019-04-22T22:56:14.216Z,93283.83
2019-04-22T22:58:50.602Z,93283.31
2019-04-22T23:01:21.241Z,93280.72
2019-04-22T23:04:06.488Z,93273.97
2019-04-22T23:06:20.651Z,93274.72
2019-04-22T23:08:53.999Z,93272.02
2019-04-22T23:11:26.823Z,93271.62
2019-04-22T23:13:49.748Z,93271.67
2019-04-22T23:16:10.088Z,93266.80
2019-04-22T23:18:28.051Z,93267.00
2019-04-22T23:20:57.787Z,93269.30
2019-04-22T23:23:43.945Z,93268.82
2019-04-22T23:26:40.991Z,93265.49
2019-04-22T23:29:06.186Z,93262.94
2019-04-22T23:31:36.843Z,93257.27
2019-04-22T23:34:11.373Z,93259.05
2019-04-22T23:36:57.623Z,93244.66
2019-04-22T23:39:43.534Z,93253.02
2019-04-22T23:42:15.914Z,93253.02
2019-04-22T23:44:39.729Z,93249.17
2019-04-22T23:47:06.098Z,93252.81
2019-04-22T23:49:32.491Z,93255.55
2019-04-22T23:52:13.309Z,93245.86
2019-04-22T23:54:51.012Z,93251.97
2019-04-22T23:57:24.083Z,93252.16
2019-04-22T23:59:57.114Z,93253.22
